Time;durP1;ratioP1;P1;durP2;ratioP2;P2;SDS_P1;SDS_P2;PMS_P1;PMS_P2;Temp;Humidity;BMP_temperature;BMP_pressure;BME280_temperature;BME280_humidity;BME280_pressure;Samples;Min_cycle;Max_cycle;Signal;HPM_P1;HPM_P2
2021/03/31 00:01:41;;;;;;;7.85;3.15;;;7.00;99.90;;;;;;4811865;29;20053;-80
2021/03/31 00:04:08;;;;;;;5.13;2.85;;;6.90;99.90;;;;;;4806400;29;20519;-79
2021/03/31 00:06:35;;;;;;;7.82;3.60;;;6.90;99.90;;;;;;4791754;29;20061;-79
2021/03/31 00:09:06;;;;;;;5.95;3.50;;;6.90;99.90;;;;;;4805693;29;20529;-79
2021/03/31 00:11:33;;;;;;;7.05;3.33;;;6.80;99.90;;;;;;4806646;29;20057;-79
2021/03/31 00:14:05;;;;;;;6.22;3.45;;;6.80;99.90;;;;;;4792409;29;20519;-79
2021/03/31 00:16:32;;;;;;;5.55;3.50;;;6.70;99.90;;;;;;4791480;29;20419;-79
2021/03/31 00:19:04;;;;;;;7.03;3.55;;;6.70;99.90;;;;;;4806761;29;20047;-79
2021/03/31 00:21:35;;;;;;;4.90;3.40;;;6.70;99.90;;;;;;4807994;29;20051;-79
2021/03/31 00:24:08;;;;;;;5.80;3.65;;;6.70;99.90;;;;;;4791978;29;20054;-79
2021/03/31 00:26:34;;;;;;;4.60;3.10;;;6.60;99.90;;;;;;4806699;29;20042;-79
2021/03/31 00:29:06;;;;;;;8.50;3.47;;;6.60;99.90;;;;;;4791908;29;20096;-79
2021/03/31 00:31:33;;;;;;;5.55;3.63;;;6.50;99.90;;;;;;4791573;29;20596;-80
2021/03/31 00:34:05;;;;;;;7.00;3.50;;;6.50;99.90;;;;;;4792335;29;20043;-79
2021/03/31 00:36:36;;;;;;;6.90;4.00;;;6.50;99.90;;;;;;4792096;29;20112;-80
2021/03/31 00:39:06;;;;;;;6.97;3.88;;;6.50;99.90;;;;;;4806426;29;20534;-79
2021/03/31 00:41:38;;;;;;;6.47;3.72;;;6.40;99.90;;;;;;4840153;24;20415;-79
2021/03/31 00:44:05;;;;;;;6.30;3.33;;;6.40;99.90;;;;;;4791429;29;20538;-79
2021/03/31 00:46:37;;;;;;;5.78;3.70;;;6.40;99.90;;;;;;4777178;29;20057;-79
2021/03/31 00:49:09;;;;;;;6.40;3.58;;;6.40;99.90;;;;;;4777030;29;20131;-79
2021/03/31 00:51:36;;;;;;;7.50;3.97;;;6.40;99.90;;;;;;4776532;29;20047;-80
2021/03/31 00:54:08;;;;;;;6.00;3.58;;;6.40;99.90;;;;;;4791279;29;20057;-80
2021/03/31 00:56:40;;;;;;;6.28;3.75;;;6.40;99.90;;;;;;4791378;29;20047;-79
2021/03/31 00:59:07;;;;;;;5.45;3.83;;;6.40;99.90;;;;;;4776686;29;20055;-79
2021/03/31 01:01:40;;;;;;;10.75;3.28;;;6.30;99.90;;;;;;4790817;29;20525;-79
2021/03/31 01:04:11;;;;;;;6.28;3.00;;;6.30;99.90;;;;;;4792058;29;20065;-79
2021/03/31 01:06:43;;;;;;;5.07;3.30;;;6.20;99.90;;;;;;4776896;29;20085;-80
2021/03/31 01:09:10;;;;;;;3.92;2.65;;;6.10;99.90;;;;;;4776016;29;20062;-79
2021/03/31 01:12:02;;;;;;;5.25;3.22;;;6.00;99.90;;;;;;4777317;29;20055;-79
2021/03/31 01:15:06;;;;;;;5.70;3.17;;;6.00;99.90;;;;;;4792152;29;20050;-80
2021/03/31 01:18:07;;;;;;;4.53;2.60;;;6.00;99.90;;;;;;4791463;29;20141;-80
2021/03/31 01:21:02;;;;;;;5.35;3.30;;;5.90;99.90;;;;;;4778315;29;20111;-80
2021/03/31 01:24:11;;;;;;;6.78;3.40;;;5.90;99.90;;;;;;4783022;29;20055;-79
2021/03/31 01:27:02;;;;;;;5.00;3.17;;;5.80;99.90;;;;;;4813758;29;20121;-79
2021/03/31 01:29:47;;;;;;;7.18;4.00;;;5.80;99.90;;;;;;4797411;29;20050;-79
2021/03/31 01:32:33;;;;;;;6.05;3.92;;;5.80;99.90;;;;;;4890645;24;20434;-79
2021/03/31 01:35:12;;;;;;;9.20;4.25;;;5.80;99.90;;;;;;4779300;30;20047;-79
2021/03/31 01:37:49;;;;;;;6.90;4.18;;;5.70;99.90;;;;;;4764144;30;20527;-80
2021/03/31 01:40:19;;;;;;;7.60;4.28;;;5.70;99.90;;;;;;4779213;29;20051;-79
2021/03/31 01:42:55;;;;;;;7.88;4.53;;;5.70;99.90;;;;;;4765210;30;20074;-79
2021/03/31 01:45:26;;;;;;;10.07;5.53;;;5.60;99.90;;;;;;4779032;30;20508;-79
2021/03/31 01:47:55;;;;;;;9.93;5.82;;;5.70;99.90;;;;;;4778996;30;20047;-79
2021/03/31 01:50:28;;;;;;;7.43;4.95;;;5.70;99.90;;;;;;4779873;29;20085;-80
2021/03/31 01:53:02;;;;;;;7.30;4.65;;;5.60;99.90;;;;;;4779070;30;20500;-79
2021/03/31 01:55:30;;;;;;;9.88;4.43;;;5.60;99.90;;;;;;4778734;30;20101;-80
2021/03/31 01:58:02;;;;;;;7.15;4.00;;;5.60;99.90;;;;;;4765305;30;20051;-79
2021/03/31 02:00:32;;;;;;;7.05;4.05;;;5.50;99.90;;;;;;4764183;30;20112;-80
2021/03/31 02:03:00;;;;;;;6.65;3.97;;;5.60;99.90;;;;;;4779185;30;20059;-79
2021/03/31 02:05:29;;;;;;;5.35;3.90;;;5.50;99.90;;;;;;4764696;30;20065;-79
2021/03/31 02:07:56;;;;;;;6.53;3.90;;;5.50;99.90;;;;;;4779075;30;20052;-79
2021/03/31 02:10:29;;;;;;;5.70;4.00;;;5.50;99.90;;;;;;4764583;30;20051;-80
2021/03/31 02:12:56;;;;;;;9.48;4.97;;;5.50;99.90;;;;;;4763566;30;20100;-80
2021/03/31 02:15:27;;;;;;;6.63;4.85;;;5.40;99.90;;;;;;4779004;30;20081;-80
2021/03/31 02:17:56;;;;;;;7.53;4.32;;;5.40;99.90;;;;;;4779470;30;20047;-80
2021/03/31 02:20:28;;;;;;;7.35;5.28;;;5.40;99.90;;;;;;4795153;29;20055;-79
2021/03/31 02:23:01;;;;;;;8.18;5.80;;;5.30;99.90;;;;;;4779087;30;20146;-79
2021/03/31 02:25:27;;;;;;;8.82;5.80;;;5.30;99.90;;;;;;4779327;30;20131;-79
2021/03/31 02:27:54;;;;;;;8.95;5.90;;;5.30;99.90;;;;;;4764158;30;20048;-79
2021/03/31 02:30:24;;;;;;;10.45;5.30;;;5.30;99.90;;;;;;4764078;29;20052;-79
2021/03/31 02:32:54;;;;;;;8.02;5.05;;;5.20;99.90;;;;;;4776391;30;20055;-80
2021/03/31 02:35:26;;;;;;;9.15;6.00;;;5.20;99.90;;;;;;4776307;30;20104;-79
2021/03/31 02:38:06;;;;;;;6.50;4.47;;;5.20;99.90;;;;;;4777162;30;20051;-79
2021/03/31 02:43:39;;;;;;;7.55;4.43;;;5.10;99.90;;;;;;4892469;24;20058;-79
2021/03/31 02:46:16;;;;;;;6.95;4.45;;;5.10;99.90;;;;;;4761668;30;20511;-79
2021/03/31 02:48:44;;;;;;;7.78;5.00;;;5.10;99.90;;;;;;4761126;30;20059;-80
2021/03/31 02:51:12;;;;;;;8.85;4.80;;;5.00;99.90;;;;;;4761054;30;20048;-79
2021/03/31 02:53:45;;;;;;;8.75;5.70;;;5.10;99.90;;;;;;4761887;30;20047;-80
2021/03/31 02:56:13;;;;;;;10.32;5.28;;;5.10;99.90;;;;;;4775223;30;20086;-79
2021/03/31 02:58:43;;;;;;;11.23;5.10;;;5.00;99.90;;;;;;4775506;30;20078;-80
2021/03/31 03:01:15;;;;;;;7.32;5.30;;;5.00;99.90;;;;;;4761445;30;20137;-79
2021/03/31 03:03:47;;;;;;;9.00;5.10;;;5.00;99.90;;;;;;4775935;30;20078;-79
2021/03/31 03:06:19;;;;;;;7.47;4.88;;;5.00;99.90;;;;;;4761562;30;20053;-79
2021/03/31 03:08:46;;;;;;;9.52;5.45;;;5.00;99.90;;;;;;4761155;30;20078;-79
2021/03/31 03:11:17;;;;;;;8.73;5.28;;;5.00;99.90;;;;;;4775180;30;20039;-79
2021/03/31 03:13:46;;;;;;;9.48;4.72;;;5.00;99.90;;;;;;4775705;30;20415;-80
2021/03/31 03:16:15;;;;;;;7.47;5.13;;;5.00;99.90;;;;;;4775382;30;20063;-80
2021/03/31 03:18:47;;;;;;;6.43;4.53;;;5.00;99.90;;;;;;4761268;30;20118;-79
2021/03/31 03:21:14;;;;;;;11.25;5.03;;;5.00;99.90;;;;;;4760377;30;20430;-79
2021/03/31 03:23:47;;;;;;;8.63;5.10;;;4.90;99.90;;;;;;4761368;30;20488;-79
2021/03/31 03:26:16;;;;;;;7.82;5.05;;;5.00;99.90;;;;;;4760269;30;20055;-79
2021/03/31 03:28:48;;;;;;;;;;;4.90;99.90;;;;;;4761644;30;20047;-79
2021/03/31 03:31:15;;;;;;;10.27;4.93;;;4.90;99.90;;;;;;4760630;30;19926;-80
2021/03/31 03:33:48;;;;;;;10.75;5.28;;;4.80;99.90;;;;;;4775218;30;20515;-79
2021/03/31 03:36:20;;;;;;;8.55;5.25;;;4.80;99.90;;;;;;4761227;30;20137;-79
2021/03/31 03:38:48;;;;;;;8.95;4.80;;;4.70;99.90;;;;;;4774917;30;20130;-80
2021/03/31 03:41:20;;;;;;;9.98;5.18;;;4.70;99.90;;;;;;4775152;30;20055;-80
2021/03/31 03:43:55;;;;;;;11.55;5.63;;;4.70;99.90;;;;;;4774077;30;20071;-80
2021/03/31 03:46:31;;;;;;;9.05;4.80;;;4.60;99.90;;;;;;4761057;30;20069;-80
2021/03/31 03:49:02;;;;;;;8.27;5.25;;;4.60;99.90;;;;;;4775274;30;20150;-79
2021/03/31 03:51:30;;;;;;;8.10;5.13;;;4.50;99.90;;;;;;4790772;29;20054;-80
2021/03/31 03:53:57;;;;;;;9.65;4.97;;;4.50;99.90;;;;;;4774914;30;20424;-79
2021/03/31 03:56:29;;;;;;;7.45;5.13;;;4.40;99.90;;;;;;4774563;30;20131;-80
2021/03/31 03:59:18;;;;;;;10.85;5.18;;;4.30;99.90;;;;;;4760763;30;20054;-80
2021/03/31 04:01:51;;;;;;;8.50;5.50;;;4.30;99.90;;;;;;4760699;30;20538;-79
2021/03/31 04:04:19;;;;;;;7.60;4.40;;;4.20;99.90;;;;;;4774635;30;20419;-80
2021/03/31 04:06:51;;;;;;;6.70;4.38;;;4.20;99.90;;;;;;4760086;30;20044;-80
2021/03/31 04:09:22;;;;;;;6.57;4.60;;;4.20;99.90;;;;;;4760409;30;20055;-79
2021/03/31 04:11:51;;;;;;;8.57;5.20;;;4.20;99.90;;;;;;4759864;30;20047;-79
2021/03/31 04:14:23;;;;;;;9.77;5.32;;;4.20;99.90;;;;;;4790211;30;20075;-80
2021/03/31 04:16:51;;;;;;;6.80;4.50;;;4.30;99.90;;;;;;4759799;30;20065;-80
2021/03/31 04:19:19;;;;;;;9.77;5.22;;;4.30;99.90;;;;;;4759467;30;20051;-80
2021/03/31 04:21:46;;;;;;;9.30;5.28;;;4.30;99.90;;;;;;4774459;30;20065;-80
2021/03/31 04:24:14;;;;;;;10.65;5.68;;;4.30;99.90;;;;;;4759758;30;20063;-80
2021/03/31 04:26:41;;;;;;;7.95;5.10;;;4.30;99.90;;;;;;4774607;30;20047;-80
2021/03/31 04:29:13;;;;;;;8.77;4.82;;;4.30;99.90;;;;;;4759729;30;20491;-79
2021/03/31 04:31:45;;;;;;;8.43;4.82;;;4.30;99.90;;;;;;4760209;30;20043;-80
2021/03/31 04:34:19;;;;;;;7.63;4.80;;;4.30;99.90;;;;;;4774840;30;20059;-80
2021/03/31 04:36:50;;;;;;;;;;;4.20;99.90;;;;;;4775739;30;20423;-80
2021/03/31 04:39:17;;;;;;;9.32;5.00;;;4.20;99.90;;;;;;4774273;30;20313;-80
2021/03/31 04:41:49;;;;;;;9.43;5.25;;;4.20;99.90;;;;;;4759906;29;20119;-80
2021/03/31 04:44:20;;;;;;;11.02;5.50;;;4.20;99.90;;;;;;4760352;30;20209;-80
2021/03/31 04:46:52;;;;;;;10.88;5.80;;;4.20;99.90;;;;;;4774023;30;20539;-80
2021/03/31 04:49:24;;;;;;;13.13;6.75;;;4.20;99.90;;;;;;4774352;30;20150;-80
2021/03/31 04:51:56;;;;;;;11.20;5.65;;;4.20;99.90;;;;;;4759898;30;20591;-80
2021/03/31 04:54:22;;;;;;;11.20;5.85;;;4.20;99.90;;;;;;4759005;30;20055;-80
2021/03/31 04:56:54;;;;;;;10.45;6.03;;;4.10;99.90;;;;;;4759654;30;20047;-80
2021/03/31 04:59:26;;;;;;;13.35;5.68;;;4.10;99.90;;;;;;4759752;30;20055;-79
2021/03/31 05:01:53;;;;;;;15.85;6.00;;;4.10;99.90;;;;;;4773902;30;20055;-79
2021/03/31 05:04:19;;;;;;;15.63;6.30;;;4.00;99.90;;;;;;4759204;30;20070;-80
2021/03/31 05:06:51;;;;;;;10.65;5.95;;;4.00;99.90;;;;;;4760152;30;20054;-79
2021/03/31 05:09:19;;;;;;;10.48;6.82;;;4.00;99.90;;;;;;4759059;30;20531;-79
2021/03/31 05:11:46;;;;;;;9.02;6.32;;;4.00;99.90;;;;;;4758810;30;20074;-80
2021/03/31 05:14:13;;;;;;;15.50;6.45;;;4.00;99.90;;;;;;4773912;30;20108;-80
2021/03/31 05:16:44;;;;;;;12.73;6.78;;;4.10;99.90;;;;;;4773493;30;20062;-80
2021/03/31 05:19:16;;;;;;;11.13;7.10;;;4.00;99.90;;;;;;4773114;30;20059;-80
2021/03/31 05:21:43;;;;;;;15.38;7.18;;;4.00;99.90;;;;;;4758942;30;20061;-80
2021/03/31 05:24:10;;;;;;;15.88;6.78;;;4.00;99.90;;;;;;4773685;30;20137;-79
2021/03/31 05:26:42;;;;;;;10.45;6.03;;;4.00;99.90;;;;;;4759400;30;20055;-79
2021/03/31 05:29:09;;;;;;;13.90;6.35;;;4.00;99.90;;;;;;4758603;30;20504;-80
2021/03/31 05:31:35;;;;;;;11.63;6.68;;;3.90;99.90;;;;;;4761013;29;20050;-79
2021/03/31 05:34:07;;;;;;;10.55;6.15;;;3.90;99.90;;;;;;4773587;29;20047;-79
2021/03/31 05:36:38;;;;;;;11.32;7.03;;;3.90;99.90;;;;;;4776556;30;20423;-79
2021/03/31 05:39:09;;;;;;;9.38;6.00;;;3.90;99.90;;;;;;4757418;29;20047;-79
2021/03/31 05:41:36;;;;;;;13.02;6.03;;;4.00;99.90;;;;;;4785794;29;20214;-79
2021/03/31 05:44:08;;;;;;;13.27;6.70;;;4.00;99.90;;;;;;4759403;30;20520;-79
2021/03/31 05:46:42;;;;;;;12.52;6.43;;;4.00;99.90;;;;;;4766791;30;20049;-79
2021/03/31 05:49:13;;;;;;;9.73;5.20;;;4.00;99.90;;;;;;4770323;30;20043;-79
2021/03/31 05:51:45;;;;;;;12.52;4.93;;;4.00;99.90;;;;;;4753300;30;20043;-79
2021/03/31 05:54:19;;;;;;;11.60;6.20;;;4.10;99.90;;;;;;4767315;30;20404;-79
2021/03/31 05:56:51;;;;;;;11.93;6.50;;;4.00;99.90;;;;;;4750953;30;20043;-78
2021/03/31 05:59:18;;;;;;;17.75;5.72;;;4.10;99.90;;;;;;4774449;29;20055;-79
2021/03/31 06:01:50;;;;;;;10.18;5.35;;;4.10;99.90;;;;;;4765675;30;20039;-79
2021/03/31 06:04:18;;;;;;;10.30;5.72;;;4.10;99.90;;;;;;4750920;30;20066;-79
2021/03/31 06:06:49;;;;;;;13.90;6.37;;;4.10;99.90;;;;;;4750439;30;20418;-79
2021/03/31 06:09:16;;;;;;;14.50;5.68;;;4.10;99.90;;;;;;4753707;30;20820;-79
2021/03/31 06:11:50;;;;;;;10.45;5.70;;;4.20;99.90;;;;;;4756140;30;20051;-79
2021/03/31 06:14:28;;;;;;;9.45;5.90;;;4.20;99.90;;;;;;4756874;29;20138;-79
2021/03/31 06:17:11;;;;;;;11.35;6.18;;;4.20;99.90;;;;;;4756393;30;20423;-79
2021/03/31 06:19:44;;;;;;;14.30;6.70;;;4.30;99.90;;;;;;4772519;30;20208;-79
2021/03/31 06:22:42;;;;;;;;;;;4.30;99.90;;;;;;4772742;30;20233;-79
2021/03/31 06:25:26;;;;;;;11.90;5.65;;;4.40;99.90;;;;;;4769627;30;20019;-78
2021/03/31 06:27:58;;;;;;;13.80;5.80;;;4.50;99.90;;;;;;4754664;30;20047;-78
2021/03/31 06:30:26;;;;;;;15.02;6.88;;;4.50;99.90;;;;;;4794584;29;20505;-78
2021/03/31 06:32:58;;;;;;;17.17;7.53;;;4.70;99.90;;;;;;4770957;30;20492;-78
2021/03/31 06:35:30;;;;;;;21.50;9.23;;;4.80;99.90;;;;;;4777685;29;20118;-78
2021/03/31 06:38:28;;;;;;;15.95;8.88;;;5.00;99.90;;;;;;4757137;30;20142;-78
2021/03/31 06:41:13;;;;;;;17.85;8.75;;;5.30;99.90;;;;;;4775663;29;20053;-78
2021/03/31 06:44:16;;;;;;;16.45;8.70;;;5.50;99.90;;;;;;4760703;30;20142;-77
2021/03/31 06:47:00;;;;;;;12.95;7.80;;;5.60;99.90;;;;;;4774701;29;20047;-78
2021/03/31 06:49:32;;;;;;;12.35;7.07;;;5.60;99.90;;;;;;4773181;29;20043;-77
2021/03/31 06:52:09;;;;;;;14.55;7.95;;;5.70;99.90;;;;;;4775182;29;20529;-78
2021/03/31 06:54:52;;;;;;;15.43;9.80;;;5.70;99.90;;;;;;4775287;29;20525;-78
2021/03/31 06:57:25;;;;;;;15.38;8.63;;;5.70;99.90;;;;;;4775232;29;20078;-78
2021/03/31 07:00:06;;;;;;;13.60;7.35;;;5.70;99.90;;;;;;4775164;29;20150;-78
2021/03/31 07:02:39;;;;;;;15.77;7.63;;;5.80;99.90;;;;;;4748528;29;20482;-77
2021/03/31 07:05:11;;;;;;;12.17;8.30;;;5.90;99.90;;;;;;4775163;29;20489;-78
2021/03/31 07:07:42;;;;;;;10.98;7.70;;;6.00;99.90;;;;;;4774991;29;20133;-78
2021/03/31 07:10:16;;;;;;;13.48;7.93;;;6.20;99.90;;;;;;4790055;29;20130;-78
2021/03/31 07:12:52;;;;;;;18.40;8.40;;;6.30;99.90;;;;;;4774259;29;20053;-78
2021/03/31 07:15:26;;;;;;;14.07;8.93;;;6.40;99.90;;;;;;4758440;29;20039;-78
2021/03/31 07:17:58;;;;;;;13.75;9.10;;;6.50;99.90;;;;;;4778277;29;20507;-78
2021/03/31 07:20:31;;;;;;;17.35;8.70;;;6.60;99.90;;;;;;4779206;30;20430;-78
2021/03/31 07:23:02;;;;;;;10.57;7.63;;;6.60;99.90;;;;;;4777897;29;20058;-77
2021/03/31 07:25:28;;;;;;;18.80;9.77;;;6.70;99.90;;;;;;4775338;29;20047;-78
2021/03/31 07:28:01;;;;;;;16.90;9.20;;;6.80;99.90;;;;;;4773883;29;20139;-78
2021/03/31 07:30:33;;;;;;;15.57;9.65;;;6.90;99.90;;;;;;4774264;29;20422;-78
2021/03/31 07:33:33;;;;;;;15.20;8.38;;;7.00;99.90;;;;;;4788133;29;20051;-78
2021/03/31 07:36:08;;;;;;;14.82;8.50;;;7.10;99.90;;;;;;4776696;29;20050;-78
2021/03/31 07:38:41;;;;;;;17.08;9.90;;;7.20;99.90;;;;;;4759193;30;20078;-78
2021/03/31 07:41:13;;;;;;;20.13;8.60;;;7.30;99.90;;;;;;4770213;29;20158;-78
2021/03/31 07:43:46;;;;;;;15.40;8.10;;;7.30;99.90;;;;;;4751851;30;20055;-78
2021/03/31 07:46:26;;;;;;;22.95;9.50;;;7.40;99.90;;;;;;4752986;30;20062;-78
2021/03/31 07:48:58;;;;;;;16.05;9.23;;;7.50;99.90;;;;;;4761857;30;20047;-78
2021/03/31 07:51:29;;;;;;;15.13;9.18;;;7.60;99.90;;;;;;4782601;29;20142;-79
2021/03/31 07:54:03;;;;;;;14.30;8.80;;;7.80;99.90;;;;;;4773167;29;20077;-78
2021/03/31 07:56:36;;;;;;;13.80;7.85;;;7.90;99.90;;;;;;4772993;29;20542;-79
2021/03/31 07:59:10;;;;;;;16.95;7.50;;;8.00;99.90;;;;;;4757676;29;20133;-78
2021/03/31 08:01:47;;;;;;;17.35;8.90;;;8.10;99.90;;;;;;4787770;29;20736;-78
2021/03/31 08:04:20;;;;;;;12.60;7.93;;;8.30;99.90;;;;;;4770744;29;20080;-78
2021/03/31 08:06:55;;;;;;;;;;;8.50;99.90;;;;;;4773030;29;20141;-79
2021/03/31 08:09:30;;;;;;;16.15;8.75;;;8.60;99.90;;;;;;4772271;29;19976;-78
2021/03/31 08:11:57;;;;;;;15.73;8.60;;;8.80;99.90;;;;;;4769431;29;20107;-78
2021/03/31 08:14:32;;;;;;;14.02;8.35;;;9.00;99.90;;;;;;4771832;30;20551;-78
2021/03/31 08:17:09;;;;;;;14.57;8.43;;;9.20;99.90;;;;;;4772675;30;20134;-79
2021/03/31 08:19:46;;;;;;;14.55;8.88;;;9.30;99.90;;;;;;4770165;30;20400;-78
2021/03/31 08:22:32;;;;;;;14.95;8.40;;;9.50;99.90;;;;;;4757767;30;20059;-78
2021/03/31 08:25:25;;;;;;;16.35;9.25;;;9.60;99.90;;;;;;4792851;29;20061;-78
2021/03/31 08:28:03;;;;;;;14.90;9.50;;;9.80;99.90;;;;;;4773080;29;20073;-78
2021/03/31 08:30:39;;;;;;;14.30;7.63;;;10.00;99.90;;;;;;4771684;29;20051;-78
2021/03/31 08:33:11;;;;;;;12.38;8.05;;;10.20;99.90;;;;;;4772391;29;20112;-78
2021/03/31 08:35:42;;;;;;;20.48;9.35;;;10.40;99.90;;;;;;4772415;29;20129;-78
2021/03/31 08:38:14;;;;;;;21.95;9.15;;;10.50;99.90;;;;;;4776899;29;20119;-79
2021/03/31 08:40:45;;;;;;;21.17;8.45;;;10.70;99.90;;;;;;4770140;29;20074;-78
2021/03/31 08:43:20;;;;;;;14.52;8.15;;;10.80;99.90;;;;;;4764798;29;20078;-78
2021/03/31 08:45:54;;;;;;;14.35;8.40;;;10.90;99.90;;;;;;4770743;29;20078;-78
2021/03/31 08:48:40;;;;;;;14.55;9.05;;;11.10;99.90;;;;;;4756669;29;20155;-78
2021/03/31 08:51:13;;;;;;;10.55;7.75;;;11.20;99.90;;;;;;4753822;30;20082;-78
2021/03/31 08:53:44;;;;;;;12.15;7.60;;;11.30;99.90;;;;;;4770447;29;20043;-78
2021/03/31 08:56:25;;;;;;;11.75;6.57;;;11.50;99.90;;;;;;4758618;30;20093;-79
2021/03/31 08:58:57;;;;;;;12.65;6.60;;;11.70;99.90;;;;;;4768631;30;20192;-78
2021/03/31 09:01:31;;;;;;;13.65;6.53;;;11.90;99.90;;;;;;4760178;29;20145;-78
2021/03/31 09:04:19;;;;;;;8.57;5.63;;;12.00;99.90;;;;;;4768923;29;20145;-78
2021/03/31 09:06:51;;;;;;;9.15;5.72;;;12.20;99.90;;;;;;4766863;29;20047;-78
2021/03/31 09:09:17;;;;;;;8.52;5.60;;;12.40;99.90;;;;;;4781478;29;20112;-78
2021/03/31 09:11:58;;;;;;;11.45;5.68;;;12.60;99.90;;;;;;4762819;29;20047;-78
2021/03/31 09:14:29;;;;;;;8.90;4.80;;;12.80;99.90;;;;;;4771866;29;20043;-78
2021/03/31 09:17:03;;;;;;;10.23;4.68;;;13.00;99.90;;;;;;4782422;30;20141;-78
2021/03/31 09:19:40;;;;;;;8.68;4.03;;;13.10;99.00;;;;;;4749749;30;20687;-79
2021/03/31 09:22:14;;;;;;;8.80;3.80;;;13.30;95.80;;;;;;4767725;30;20109;-78
2021/03/31 09:24:47;;;;;;;9.45;3.90;;;13.50;94.00;;;;;;4753359;30;20469;-79
2021/03/31 09:27:22;;;;;;;8.55;4.05;;;13.70;94.50;;;;;;4768715;30;20082;-78
2021/03/31 09:29:55;;;;;;;7.65;3.95;;;13.90;93.00;;;;;;4753486;30;20138;-78
2021/03/31 09:32:33;;;;;;;7.82;4.15;;;14.10;88.50;;;;;;4767706;30;20396;-79
2021/03/31 09:35:10;;;;;;;12.07;4.47;;;14.30;90.40;;;;;;4779076;29;20043;-79
2021/03/31 09:37:45;;;;;;;11.93;4.82;;;14.50;88.40;;;;;;4756332;29;20051;-78
2021/03/31 09:40:22;;;;;;;8.98;4.82;;;14.70;86.60;;;;;;4769740;29;20145;-78
2021/03/31 09:42:58;;;;;;;10.30;5.00;;;14.70;87.40;;;;;;4771388;29;20050;-79
2021/03/31 09:45:25;;;;;;;11.35;4.95;;;14.90;84.70;;;;;;4759953;30;20527;-79
2021/03/31 09:47:58;;;;;;;8.53;4.90;;;14.90;83.60;;;;;;4782028;29;20192;-79
2021/03/31 09:50:33;;;;;;;10.63;4.93;;;15.10;77.50;;;;;;4786384;29;20127;-79
2021/03/31 09:53:02;;;;;;;11.15;5.70;;;15.20;80.10;;;;;;4775396;30;20055;-79
2021/03/31 09:55:35;;;;;;;11.93;4.80;;;15.30;82.20;;;;;;4763301;29;20047;-79
2021/03/31 09:58:02;;;;;;;11.95;5.53;;;15.40;78.70;;;;;;4759392;30;20408;-79
2021/03/31 10:00:28;;;;;;;9.38;5.53;;;15.40;78.30;;;;;;4775744;30;20055;-79
2021/03/31 10:03:00;;;;;;;16.50;5.63;;;15.50;78.20;;;;;;4773465;30;20062;-79
2021/03/31 10:05:27;;;;;;;9.90;5.00;;;15.60;76.90;;;;;;4771910;30;20078;-80
2021/03/31 10:08:01;;;;;;;9.30;5.20;;;15.70;76.50;;;;;;4757041;30;20496;-79
2021/03/31 10:10:44;;;;;;;10.77;5.75;;;15.80;77.10;;;;;;4767308;29;20051;-80
2021/03/31 10:13:17;;;;;;;10.75;5.72;;;15.90;75.10;;;;;;4767427;29;20043;-79
2021/03/31 10:15:54;;;;;;;13.07;5.28;;;16.00;73.90;;;;;;4774460;29;20057;-79
2021/03/31 10:18:21;;;;;;;11.30;5.97;;;16.10;75.00;;;;;;4764298;30;20530;-80
2021/03/31 10:20:56;;;;;;;10.05;6.25;;;16.20;70.70;;;;;;4774130;29;20063;-80
2021/03/31 10:23:34;;;;;;;11.25;5.90;;;16.30;71.30;;;;;;4760552;29;20071;-79
2021/03/31 10:26:28;;;;;;;10.55;6.93;;;16.50;73.00;;;;;;4769164;29;20134;-79
2021/03/31 10:28:57;;;;;;;11.50;6.30;;;16.60;69.50;;;;;;4759758;30;20101;-80
2021/03/31 10:31:31;;;;;;;10.77;6.18;;;16.80;67.70;;;;;;4759512;29;20050;-79
2021/03/31 10:33:58;;;;;;;10.07;5.85;;;16.90;64.50;;;;;;4774885;29;20080;-79
2021/03/31 10:36:45;;;;;;;13.52;6.40;;;17.00;60.90;;;;;;4774766;29;20047;-79
2021/03/31 10:48:12;;;;;;;14.43;5.80;;;17.40;60.80;;;;;;4788686;29;20096;-80
2021/03/31 10:50:58;;;;;;;11.38;5.78;;;17.50;60.30;;;;;;4777184;29;20050;-79
2021/03/31 10:53:35;;;;;;;9.93;5.68;;;17.70;59.40;;;;;;4776934;29;20051;-80
2021/03/31 10:56:06;;;;;;;14.27;6.40;;;17.70;58.50;;;;;;4777480;29;20123;-80
2021/03/31 10:58:33;;;;;;;8.95;5.95;;;17.80;60.70;;;;;;4776658;29;20055;-80
2021/03/31 11:01:04;;;;;;;13.18;7.88;;;17.90;58.70;;;;;;4791136;29;20061;-80
2021/03/31 11:03:35;;;;;;;10.23;6.38;;;18.00;58.50;;;;;;4777191;29;20047;-81
2021/03/31 11:06:02;;;;;;;14.32;5.68;;;18.10;57.20;;;;;;4777298;29;20622;-80
2021/03/31 11:08:33;;;;;;;12.63;6.13;;;18.20;54.70;;;;;;4776899;29;20047;-79
2021/03/31 11:13:56;;;;;;;11.98;5.72;;;18.30;53.50;;;;;;5733251;24;20075;-80
2021/03/31 11:16:27;;;;;;;12.48;5.72;;;18.50;50.70;;;;;;4759221;30;20511;-81
2021/03/31 11:19:10;;;;;;;9.52;5.60;;;18.60;50.20;;;;;;4759844;30;20052;-80
2021/03/31 11:27:22;;;;;;;11.13;5.82;;;18.90;47.80;;;;;;5525322;24;20581;-81
2021/03/31 11:29:50;;;;;;;11.77;7.78;;;18.90;49.60;;;;;;4758879;30;20053;-81
2021/03/31 11:42:37;;;;;;;14.27;7.20;;;19.10;52.90;;;;;;4922385;24;20062;-82
2021/03/31 11:45:05;;;;;;;13.38;7.47;;;19.20;53.70;;;;;;4744898;30;20116;-81
2021/03/31 11:47:31;;;;;;;14.70;8.18;;;19.40;54.20;;;;;;4757587;30;20473;-82
2021/03/31 11:49:58;;;;;;;14.68;7.68;;;19.40;53.60;;;;;;4742384;30;20155;-82
2021/03/31 12:04:58;;;;;;;13.65;7.72;;;19.60;53.60;;;;;;4787490;29;20270;-81
2021/03/31 12:07:43;;;;;;;12.93;8.05;;;19.70;52.80;;;;;;4761032;30;20071;-82
2021/03/31 12:13:47;;;;;;;15.55;7.40;;;19.70;51.90;;;;;;5722744;24;20059;-81
2021/03/31 12:16:17;;;;;;;12.90;7.13;;;19.80;50.70;;;;;;4759303;30;20067;-82
2021/03/31 12:18:44;;;;;;;16.70;7.88;;;19.80;51.20;;;;;;4773547;30;20047;-83
2021/03/31 12:21:14;;;;;;;15.70;8.10;;;19.90;51.50;;;;;;5089125;24;20364;-82
2021/03/31 12:23:42;;;;;;;22.98;8.50;;;20.00;51.20;;;;;;4791694;29;20477;-82
2021/03/31 12:26:14;;;;;;;15.27;8.07;;;20.10;52.00;;;;;;4781167;29;20051;-82
2021/03/31 12:28:46;;;;;;;16.70;7.57;;;20.20;49.80;;;;;;4796347;29;20054;-82
2021/03/31 12:34:14;;;;;;;19.17;9.27;;;20.20;50.10;;;;;;4846337;24;20066;-82
2021/03/31 12:36:42;;;;;;;20.98;7.85;;;20.30;51.40;;;;;;4763864;30;20060;-81
2021/03/31 12:39:16;;;;;;;15.20;7.05;;;20.40;49.20;;;;;;4778699;30;20576;-82
2021/03/31 12:44:51;;;;;;;12.82;5.40;;;20.50;48.50;;;;;;4979266;24;20070;-82
2021/03/31 12:47:22;;;;;;;16.98;7.65;;;20.50;47.50;;;;;;4769782;30;20047;-81
2021/03/31 12:49:56;;;;;;;14.23;6.05;;;20.60;47.90;;;;;;4777858;30;20054;-82
2021/03/31 12:52:32;;;;;;;12.55;6.32;;;20.60;45.80;;;;;;5278309;24;20056;-80
2021/03/31 12:55:04;;;;;;;10.82;5.60;;;20.60;45.60;;;;;;4788132;29;20057;-80
2021/03/31 12:57:36;;;;;;;9.40;6.00;;;20.70;44.20;;;;;;4790782;29;20473;-80
2021/03/31 13:00:07;;;;;;;13.63;5.40;;;20.70;45.90;;;;;;4790102;29;20050;-80
2021/03/31 13:02:34;;;;;;;10.07;5.93;;;20.70;44.30;;;;;;4775128;29;20047;-80
2021/03/31 13:05:01;;;;;;;9.52;6.30;;;20.80;44.80;;;;;;4789984;29;20070;-81
2021/03/31 13:07:29;;;;;;;11.50;6.32;;;20.80;45.00;;;;;;4790062;29;20100;-83
2021/03/31 13:10:01;;;;;;;12.50;6.43;;;20.90;44.50;;;;;;4790439;29;20142;-82
2021/03/31 13:32:45;;;;;;;11.80;5.68;;;21.10;41.90;;;;;;4754383;30;20059;-81
2021/03/31 13:35:20;;;;;;;10.30;5.80;;;21.10;41.60;;;;;;4754366;30;20056;-81
2021/03/31 13:37:53;;;;;;;15.82;6.57;;;21.20;41.60;;;;;;4754416;30;20056;-82
2021/03/31 13:40:25;;;;;;;14.38;6.30;;;21.20;42.30;;;;;;4740210;30;20055;-81
2021/03/31 13:42:52;;;;;;;9.95;5.60;;;21.30;41.60;;;;;;4740144;30;20098;-81
2021/03/31 13:45:19;;;;;;;7.97;5.18;;;21.40;41.90;;;;;;4754457;30;20055;-81
2021/03/31 13:47:52;;;;;;;9.00;5.13;;;21.50;41.90;;;;;;4754123;30;20109;-81
2021/03/31 13:53:20;;;;;;;13.35;5.22;;;21.70;42.30;;;;;;5427127;24;20055;-81
2021/03/31 13:55:48;;;;;;;10.85;5.93;;;21.80;40.60;;;;;;4757553;30;20070;-81
2021/03/31 13:58:20;;;;;;;9.38;4.82;;;21.90;39.30;;;;;;4758245;30;20047;-81
2021/03/31 14:00:47;;;;;;;12.88;5.07;;;21.90;38.80;;;;;;4754473;30;20048;-80
2021/03/31 14:03:22;;;;;;;9.52;4.45;;;21.90;38.90;;;;;;4764138;30;20063;-81
2021/03/31 14:05:51;;;;;;;9.20;5.20;;;21.90;38.90;;;;;;4769366;30;20083;-81
2021/03/31 14:08:23;;;;;;;8.75;4.82;;;21.90;38.00;;;;;;4754233;30;20099;-81
2021/03/31 14:17:00;;;;;;;7.10;4.82;;;22.00;38.20;;;;;;5642686;24;20047;-80
2021/03/31 14:19:38;;;;;;;7.10;4.55;;;22.10;37.20;;;;;;4757502;30;20051;-81
2021/03/31 14:25:22;;;;;;;9.20;4.60;;;22.30;37.20;;;;;;4792350;24;20504;-81
2021/03/31 14:27:53;;;;;;;10.10;4.78;;;22.40;37.50;;;;;;4772447;30;20052;-81
2021/03/31 14:36:35;;;;;;;6.38;4.38;;;22.80;34.90;;;;;;4863062;24;20078;-82
2021/03/31 14:39:06;;;;;;;13.75;5.35;;;23.00;35.20;;;;;;4774723;30;20111;-81
2021/03/31 14:57:01;;;;;;;9.45;5.40;;;23.90;35.20;;;;;;4757152;30;20068;-80
2021/03/31 14:59:37;;;;;;;11.88;4.72;;;24.00;35.10;;;;;;4756537;30;20531;-80
2021/03/31 15:02:04;;;;;;;9.40;4.75;;;24.20;34.30;;;;;;4774190;30;20047;-79
2021/03/31 15:04:31;;;;;;;9.93;4.55;;;24.40;33.80;;;;;;4759613;30;20051;-80